createdAt,value
2023-05-10T00:00:56.990Z,67.69
2023-05-10T00:01:59.375Z,67.85
2023-05-10T00:03:01.468Z,67.85
2023-05-10T00:04:03.374Z,68.20
2023-05-10T00:05:06.126Z,67.91
2023-05-10T00:06:08.021Z,68.39
2023-05-10T00:07:11.262Z,68.21
2023-05-10T00:08:13.126Z,68.28
2023-05-10T00:09:15.023Z,68.74
2023-05-10T00:10:17.077Z,68.85
2023-05-10T00:11:20.401Z,68.56
2023-05-10T00:12:24.252Z,68.72
2023-05-10T00:13:26.442Z,68.60
2023-05-10T00:14:28.448Z,68.58
2023-05-10T00:15:31.608Z,67.88
2023-05-10T00:16:33.479Z,67.87
2023-05-10T00:17:36.047Z,68.06
2023-05-10T00:18:37.990Z,67.52
2023-05-10T00:19:39.885Z,67.50
2023-05-10T00:20:41.716Z,67.16
2023-05-10T00:21:43.605Z,67.73
2023-05-10T00:22:45.752Z,67.55
2023-05-10T00:23:47.570Z,67.26
2023-05-10T00:24:49.450Z,66.76
2023-05-10T00:25:51.401Z,67.81
2023-05-10T00:26:53.398Z,67.82
2023-05-10T00:27:56.387Z,67.64
2023-05-10T00:28:59.609Z,68.22
2023-05-10T00:30:01.698Z,67.91
2023-05-10T00:31:04.685Z,67.76
2023-05-10T00:32:07.037Z,67.93
2023-05-10T00:33:09.375Z,67.97
2023-05-10T00:34:11.237Z,67.97
2023-05-10T00:35:13.104Z,67.84
2023-05-10T00:36:15.042Z,67.25
2023-05-10T00:37:16.927Z,67.81
2023-05-10T00:38:19.198Z,68.39
2023-05-10T00:39:21.129Z,68.17
2023-05-10T00:40:23.720Z,67.85
2023-05-10T00:41:26.135Z,68.20
2023-05-10T00:42:28.076Z,67.92
2023-05-10T00:43:30.912Z,68.09
2023-05-10T00:44:32.835Z,67.99
2023-05-10T00:45:37.586Z,68.31
2023-05-10T00:46:39.629Z,68.29
2023-05-10T00:47:41.925Z,68.30
2023-05-10T00:48:45.698Z,68.06
2023-05-10T00:49:47.605Z,68.24
2023-05-10T00:50:49.768Z,67.85
2023-05-10T00:51:51.699Z,68.11
2023-05-10T00:52:53.769Z,67.95
2023-05-10T00:53:57.066Z,68.20
2023-05-10T00:54:59.389Z,68.49
2023-05-10T00:56:01.526Z,68.21
2023-05-10T00:57:04.272Z,68.29
2023-05-10T00:58:06.680Z,67.77
2023-05-10T00:59:11.526Z,67.76
2023-05-10T01:00:14.146Z,68.17
2023-05-10T01:01:16.298Z,68.11
2023-05-10T01:02:18.312Z,67.90
2023-05-10T01:03:20.459Z,68.17
2023-05-10T01:04:26.676Z,68.84
2023-05-10T01:05:28.785Z,69.02
2023-05-10T01:06:33.305Z,69.54
2023-05-10T01:07:35.165Z,69.57
2023-05-10T01:08:37.949Z,69.47
2023-05-10T01:09:40.262Z,69.38
2023-05-10T01:10:42.955Z,69.42
2023-05-10T01:11:45.582Z,68.84
2023-05-10T01:12:48.324Z,68.88
2023-05-10T01:13:56.700Z,68.88
2023-05-10T01:14:59.061Z,69.15
2023-05-10T01:16:04.190Z,69.28
2023-05-10T01:17:07.496Z,69.20
2023-05-10T01:18:11.039Z,69.51
2023-05-10T01:19:18.206Z,68.96
2023-05-10T01:20:20.811Z,68.37
2023-05-10T01:21:39.467Z,68.51
2023-05-10T01:22:44.275Z,68.77
2023-05-10T01:24:20.454Z,68.42
2023-05-10T01:25:45.162Z,68.37
2023-05-10T01:27:20.881Z,68.80
2023-05-10T01:28:34.568Z,68.02
2023-05-10T01:30:15.509Z,68.38
2023-05-10T01:31:52.232Z,68.26
2023-05-10T01:33:18.611Z,68.50
2023-05-10T01:34:37.057Z,69.24
2023-05-10T01:35:44.145Z,68.97
2023-05-10T01:36:54.003Z,69.08
2023-05-10T01:38:19.841Z,69.03
2023-05-10T01:39:37.444Z,68.65
2023-05-10T01:40:53.377Z,68.67
2023-05-10T01:42:11.441Z,68.77
2023-05-10T01:43:22.484Z,68.83
2023-05-10T01:44:54.340Z,68.95
2023-05-10T01:46:05.732Z,69.03
2023-05-10T01:47:21.243Z,68.59
2023-05-10T01:48:25.600Z,68.76
2023-05-10T01:49:31.832Z,68.55
2023-05-10T01:50:36.541Z,69.00
2023-05-10T01:51:55.794Z,68.36
2023-05-10T01:53:00.289Z,68.22
2023-05-10T01:54:04.652Z,68.12
2023-05-10T01:55:10.151Z,68.03
2023-05-10T01:56:13.864Z,68.39
2023-05-10T01:57:18.459Z,68.54
2023-05-10T01:58:26.027Z,68.87
2023-05-10T01:59:37.281Z,68.74
2023-05-10T02:00:45.644Z,69.01
2023-05-10T02:01:49.354Z,68.30
2023-05-10T02:02:53.933Z,68.83
2023-05-10T02:03:58.237Z,69.48
2023-05-10T02:05:00.717Z,68.68
2023-05-10T02:06:04.232Z,68.98
2023-05-10T02:07:08.027Z,69.02
2023-05-10T02:08:11.658Z,69.00
2023-05-10T02:09:15.288Z,69.45
2023-05-10T02:10:18.739Z,68.93
2023-05-10T02:11:23.873Z,69.09
2023-05-10T02:12:28.233Z,68.64
2023-05-10T02:13:32.798Z,68.75
2023-05-10T02:14:37.941Z,68.89
2023-05-10T02:15:42.549Z,68.82
2023-05-10T02:16:46.104Z,69.70
2023-05-10T02:17:48.721Z,70.23
2023-05-10T02:18:53.185Z,70.31
2023-05-10T02:19:57.446Z,70.44
2023-05-10T02:21:01.250Z,70.92
2023-05-10T02:22:04.418Z,69.27
2023-05-10T02:23:09.551Z,67.73
2023-05-10T02:24:12.764Z,67.49
2023-05-10T02:25:16.693Z,67.72
2023-05-10T02:26:22.043Z,68.80
2023-05-10T02:27:26.648Z,68.83
2023-05-10T02:28:30.261Z,69.45
2023-05-10T02:29:33.718Z,69.74
2023-05-10T02:30:36.854Z,70.22
2023-05-10T02:31:40.024Z,70.33
2023-05-10T02:32:44.018Z,70.96
2023-05-10T02:33:48.294Z,71.52
2023-05-10T02:34:52.968Z,71.62
2023-05-10T02:35:57.056Z,71.81
2023-05-10T02:37:00.813Z,72.78
2023-05-10T02:38:03.469Z,73.48
2023-05-10T02:39:10.383Z,74.06
2023-05-10T02:40:14.022Z,74.24
2023-05-10T02:41:16.345Z,74.43
2023-05-10T02:42:24.601Z,74.47
2023-05-10T02:43:27.136Z,74.63
2023-05-10T02:44:32.064Z,74.77
2023-05-10T02:45:37.459Z,74.82
2023-05-10T02:46:39.566Z,75.00
2023-05-10T02:47:42.153Z,75.24
2023-05-10T02:48:44.179Z,75.36
2023-05-10T02:49:46.713Z,74.99
2023-05-10T02:50:52.468Z,75.48
2023-05-10T02:52:00.978Z,75.56
2023-05-10T02:53:10.583Z,75.64
2023-05-10T02:54:16.507Z,75.86
2023-05-10T02:55:22.389Z,75.11
2023-05-10T02:56:34.223Z,75.89
2023-05-10T02:57:42.109Z,76.33
2023-05-10T02:58:44.372Z,75.73
2023-05-10T02:59:47.066Z,75.93
2023-05-10T03:00:49.097Z,76.33
2023-05-10T03:01:51.141Z,75.23
2023-05-10T03:02:53.832Z,74.75
2023-05-10T03:03:56.452Z,75.20
2023-05-10T03:04:58.387Z,75.08
2023-05-10T03:06:00.680Z,74.81
2023-05-10T03:07:03.633Z,75.16
2023-05-10T03:08:05.942Z,75.39
2023-05-10T03:09:10.339Z,75.27
2023-05-10T03:10:12.892Z,74.71
2023-05-10T03:11:36.758Z,74.90
2023-05-10T03:12:57.870Z,74.65
2023-05-10T03:14:41.064Z,74.78
2023-05-10T03:16:03.699Z,73.74
2023-05-10T03:17:42.660Z,74.61
2023-05-10T03:18:56.905Z,74.74
2023-05-10T03:20:04.265Z,74.95
2023-05-10T03:21:11.652Z,75.13
2023-05-10T03:22:32.086Z,74.34
2023-05-10T03:23:41.516Z,75.10
2023-05-10T03:24:45.680Z,75.61
2023-05-10T03:25:49.970Z,75.60
2023-05-10T03:26:55.840Z,75.29
2023-05-10T03:27:59.024Z,75.08
2023-05-10T03:29:02.251Z,75.44
2023-05-10T03:30:06.089Z,75.05
2023-05-10T03:31:08.928Z,75.22
2023-05-10T03:32:12.336Z,75.07
2023-05-10T03:33:14.884Z,74.57
2023-05-10T03:34:17.363Z,74.58
2023-05-10T03:35:19.464Z,74.76
2023-05-10T03:36:21.472Z,75.09
2023-05-10T03:37:23.914Z,75.25
2023-05-10T03:38:26.488Z,75.67
2023-05-10T03:39:29.404Z,75.36
2023-05-10T03:40:33.040Z,75.64
2023-05-10T03:41:35.052Z,75.10
2023-05-10T03:42:37.419Z,75.36
2023-05-10T03:43:39.496Z,75.39
2023-05-10T03:44:41.433Z,75.84
2023-05-10T03:45:44.348Z,76.09
2023-05-10T03:46:46.604Z,75.96
2023-05-10T03:47:48.848Z,76.25
2023-05-10T03:48:50.717Z,75.95
2023-05-10T03:49:52.922Z,76.08
2023-05-10T03:50:54.788Z,76.15
2023-05-10T03:51:56.721Z,76.16
2023-05-10T03:52:58.893Z,75.95
2023-05-10T03:54:02.533Z,75.90
2023-05-10T03:55:04.758Z,76.79
2023-05-10T03:56:06.772Z,76.62
2023-05-10T03:57:08.656Z,76.23
2023-05-10T03:58:13.787Z,76.42
2023-05-10T03:59:16.043Z,75.98
2023-05-10T04:00:18.731Z,76.27
2023-05-10T04:01:24.655Z,76.14
2023-05-10T04:02:26.819Z,75.87
2023-05-10T04:03:29.143Z,75.56
2023-05-10T04:04:31.035Z,75.47
2023-05-10T04:05:33.715Z,74.84
2023-05-10T04:06:36.182Z,74.42
2023-05-10T04:07:38.111Z,74.27
2023-05-10T04:08:40.043Z,74.66
2023-05-10T04:09:42.009Z,74.38
2023-05-10T04:10:43.916Z,73.93
2023-05-10T04:11:46.055Z,73.98
2023-05-10T04:12:47.906Z,74.32
2023-05-10T04:13:49.790Z,74.08
2023-05-10T04:14:52.044Z,74.03
2023-05-10T04:15:53.890Z,74.08
2023-05-10T04:16:56.349Z,73.74
2023-05-10T04:17:58.711Z,73.42
2023-05-10T04:19:00.989Z,73.24
2023-05-10T04:20:02.919Z,73.63
2023-05-10T04:21:04.720Z,73.66
2023-05-10T04:22:06.872Z,73.70
2023-05-10T04:23:08.794Z,73.77
2023-05-10T04:24:10.740Z,73.32
2023-05-10T04:25:12.611Z,74.01
2023-05-10T04:26:14.723Z,73.79
2023-05-10T04:27:17.062Z,73.29
2023-05-10T04:28:19.122Z,73.12
2023-05-10T04:29:21.456Z,73.07
2023-05-10T04:30:23.330Z,72.59
2023-05-10T04:31:25.303Z,72.90
2023-05-10T04:32:27.789Z,72.69
2023-05-10T04:33:29.761Z,73.20
2023-05-10T04:34:31.618Z,72.88
2023-05-10T04:35:33.599Z,72.36
2023-05-10T04:36:36.836Z,72.35
2023-05-10T04:37:39.039Z,72.74
2023-05-10T04:38:41.041Z,72.29
2023-05-10T04:39:42.894Z,72.21
2023-05-10T04:40:44.920Z,72.05
2023-05-10T04:41:46.849Z,72.55
2023-05-10T04:42:49.036Z,72.34
2023-05-10T04:43:50.865Z,72.38
2023-05-10T04:44:53.143Z,72.19
2023-05-10T04:45:57.970Z,72.44
2023-05-10T04:47:00.544Z,72.41
2023-05-10T04:48:02.709Z,71.74
2023-05-10T04:49:04.605Z,71.53
2023-05-10T04:50:07.491Z,71.04
2023-05-10T04:51:09.413Z,71.22
2023-05-10T04:52:11.288Z,71.72
2023-05-10T04:53:15.876Z,72.02
2023-05-10T04:54:17.937Z,71.68
2023-05-10T04:55:19.813Z,71.62
2023-05-10T04:56:22.902Z,71.55
2023-05-10T04:57:24.693Z,71.00
2023-05-10T04:58:27.006Z,71.43
2023-05-10T04:59:28.897Z,71.73
2023-05-10T05:00:30.960Z,72.85
2023-05-10T05:01:32.944Z,70.84
2023-05-10T05:02:35.008Z,71.27
2023-05-10T05:03:38.125Z,71.61
2023-05-10T05:04:40.020Z,71.47
2023-05-10T05:05:41.842Z,71.44
2023-05-10T05:06:44.083Z,71.39
2023-05-10T05:07:45.937Z,71.31
2023-05-10T05:08:48.117Z,71.73
2023-05-10T05:09:50.019Z,71.70
2023-05-10T05:10:51.866Z,71.31
2023-05-10T05:11:53.782Z,71.36
2023-05-10T05:12:55.722Z,71.77
2023-05-10T05:14:00.070Z,71.49
2023-05-10T05:15:04.200Z,71.17
2023-05-10T05:16:06.649Z,71.44
2023-05-10T05:17:09.142Z,71.41
2023-05-10T05:18:11.331Z,71.07
2023-05-10T05:19:13.454Z,70.54
2023-05-10T05:20:15.842Z,70.03
2023-05-10T05:21:18.659Z,69.71
2023-05-10T05:22:27.894Z,69.92
2023-05-10T05:23:29.744Z,69.93
2023-05-10T05:24:37.462Z,69.58
2023-05-10T05:25:39.682Z,69.21
2023-05-10T05:26:41.605Z,68.67
2023-05-10T05:27:43.443Z,68.72
2023-05-10T05:28:45.311Z,68.85
2023-05-10T05:29:47.688Z,68.66
2023-05-10T05:30:49.595Z,68.55
2023-05-10T05:31:53.416Z,68.83
2023-05-10T05:32:57.682Z,69.07
2023-05-10T05:33:59.601Z,68.54
2023-05-10T05:35:01.831Z,68.58
2023-05-10T05:36:05.602Z,67.67
2023-05-10T05:37:07.421Z,67.70
2023-05-10T05:38:09.503Z,67.71
2023-05-10T05:39:11.316Z,67.97
2023-05-10T05:40:15.005Z,68.46
2023-05-10T05:41:16.827Z,68.60
2023-05-10T05:42:19.885Z,68.42
2023-05-10T05:43:21.800Z,68.47
2023-05-10T05:44:23.666Z,67.91
2023-05-10T05:45:25.867Z,67.75
2023-05-10T05:46:27.927Z,67.44
2023-05-10T05:47:29.829Z,66.96
2023-05-10T05:48:32.615Z,67.98
2023-05-10T05:49:34.506Z,66.73
2023-05-10T05:50:36.660Z,66.23
2023-05-10T05:51:38.540Z,65.06
2023-05-10T05:52:40.599Z,65.12
2023-05-10T05:53:42.404Z,66.67
2023-05-10T05:54:44.842Z,65.08
2023-05-10T05:55:55.290Z,64.78
2023-05-10T05:57:03.003Z,65.09
2023-05-10T05:58:04.815Z,64.52
2023-05-10T05:59:07.216Z,64.48
2023-05-10T06:00:09.908Z,64.94
2023-05-10T06:01:14.500Z,64.43
2023-05-10T06:02:16.665Z,64.39
2023-05-10T06:03:19.352Z,64.82
2023-05-10T06:04:21.316Z,64.72
2023-05-10T06:05:23.327Z,64.92
2023-05-10T06:06:25.175Z,63.96
2023-05-10T06:07:27.553Z,63.54
2023-05-10T06:08:29.396Z,63.59
2023-05-10T06:09:31.318Z,63.67
2023-05-10T06:10:33.187Z,63.60
2023-05-10T06:11:35.687Z,62.63
2023-05-10T06:12:37.856Z,64.00
2023-05-10T06:13:39.729Z,63.95
2023-05-10T06:14:41.758Z,63.69
2023-05-10T06:15:43.706Z,62.82
2023-05-10T06:16:45.606Z,62.64
2023-05-10T06:17:50.153Z,62.14
2023-05-10T06:18:52.179Z,62.94
2023-05-10T06:19:54.137Z,62.68
2023-05-10T06:20:56.051Z,61.96
2023-05-10T06:21:57.879Z,61.98
2023-05-10T06:23:00.064Z,61.99
2023-05-10T06:24:01.965Z,62.19
2023-05-10T06:25:04.026Z,62.25
2023-05-10T06:26:05.902Z,61.84
2023-05-10T06:27:07.796Z,62.25
2023-05-10T06:28:10.074Z,62.31
2023-05-10T06:29:11.951Z,61.76
2023-05-10T06:30:16.247Z,61.00
2023-05-10T06:31:18.790Z,65.56
2023-05-10T06:32:20.681Z,59.11
2023-05-10T06:33:23.082Z,59.50
2023-05-10T06:34:25.208Z,60.25
2023-05-10T06:35:27.158Z,59.55
2023-05-10T06:36:29.399Z,58.45
2023-05-10T06:37:31.286Z,59.02
2023-05-10T06:38:34.329Z,58.24
2023-05-10T06:39:36.142Z,58.73
2023-05-10T06:40:38.024Z,58.51
2023-05-10T06:41:39.860Z,58.29
2023-05-10T06:42:41.824Z,57.24
2023-05-10T06:43:44.575Z,56.86
2023-05-10T06:44:46.431Z,56.92
2023-05-10T06:45:49.527Z,57.97
2023-05-10T06:46:52.154Z,56.93
2023-05-10T06:47:54.198Z,56.73
2023-05-10T06:48:56.345Z,57.52
2023-05-10T06:49:58.367Z,56.04
2023-05-10T06:51:00.349Z,54.14
2023-05-10T06:52:02.295Z,55.57
2023-05-10T06:53:04.812Z,55.86
2023-05-10T06:54:07.229Z,55.52
2023-05-10T06:55:09.811Z,56.52
2023-05-10T06:56:11.730Z,57.26
2023-05-10T06:57:27.607Z,56.29
2023-05-10T06:58:33.789Z,56.02
2023-05-10T06:59:37.486Z,56.53
2023-05-10T07:00:41.614Z,56.25
2023-05-10T07:01:43.859Z,55.21
2023-05-10T07:02:46.210Z,55.79
2023-05-10T07:03:48.147Z,54.86
2023-05-10T07:04:50.359Z,55.35
2023-05-10T07:05:52.230Z,55.82
2023-05-10T07:06:54.171Z,55.61
2023-05-10T07:07:56.018Z,55.25
2023-05-10T07:08:58.136Z,55.14
2023-05-10T07:10:00.551Z,54.62
2023-05-10T07:11:04.460Z,54.07
2023-05-10T07:12:07.859Z,54.52
2023-05-10T07:13:11.642Z,54.82
2023-05-10T07:14:13.630Z,55.31
2023-05-10T07:15:17.136Z,54.77
2023-05-10T07:16:19.612Z,55.14
2023-05-10T07:17:21.544Z,55.54
2023-05-10T07:18:23.462Z,55.42
2023-05-10T07:19:25.349Z,56.00
2023-05-10T07:20:27.611Z,55.42
2023-05-10T07:21:29.870Z,56.40
2023-05-10T07:22:31.813Z,55.36
2023-05-10T07:23:33.964Z,55.83
2023-05-10T07:24:36.215Z,55.77
2023-05-10T07:25:39.300Z,54.13
2023-05-10T07:26:41.102Z,53.74
2023-05-10T07:27:42.970Z,53.69
2023-05-10T07:28:44.845Z,53.13
2023-05-10T07:29:46.894Z,52.43
2023-05-10T07:30:49.173Z,53.63
2023-05-10T07:31:51.185Z,53.78
2023-05-10T07:32:53.142Z,53.25
2023-05-10T07:33:55.067Z,53.56
2023-05-10T07:34:56.932Z,53.53
2023-05-10T07:35:59.091Z,53.98
2023-05-10T07:37:01.193Z,54.55
2023-05-10T07:38:03.098Z,54.33
2023-05-10T07:39:05.103Z,54.60
2023-05-10T07:40:07.784Z,55.11
2023-05-10T07:41:09.927Z,55.36
2023-05-10T07:42:11.880Z,54.85
2023-05-10T07:43:13.684Z,54.30
2023-05-10T07:44:15.763Z,53.24
2023-05-10T07:45:18.047Z,53.00
2023-05-10T07:46:23.210Z,53.17
2023-05-10T07:47:25.136Z,52.02
2023-05-10T07:48:27.281Z,51.62
2023-05-10T07:49:29.336Z,52.61
2023-05-10T07:50:31.414Z,52.46
2023-05-10T07:51:33.798Z,52.76
2023-05-10T07:52:35.628Z,53.90
2023-05-10T07:53:38.498Z,53.01
2023-05-10T07:54:40.382Z,53.85
2023-05-10T07:55:42.209Z,53.98
2023-05-10T07:56:48.282Z,53.78
2023-05-10T07:57:50.386Z,53.46
2023-05-10T07:58:52.986Z,53.32
2023-05-10T07:59:54.868Z,53.63
2023-05-10T08:00:57.458Z,53.80
2023-05-10T08:01:59.847Z,54.15
2023-05-10T08:03:01.990Z,55.01
2023-05-10T08:04:04.308Z,55.56
2023-05-10T08:05:06.779Z,55.24
2023-05-10T08:06:08.640Z,55.05
2023-05-10T08:07:11.733Z,54.84
2023-05-10T08:08:13.618Z,53.96
2023-05-10T08:09:15.493Z,54.36
2023-05-10T08:10:17.856Z,54.20
2023-05-10T08:11:21.466Z,51.96
2023-05-10T08:12:23.662Z,53.52
2023-05-10T08:13:25.540Z,54.41
2023-05-10T08:14:30.043Z,55.25
2023-05-10T08:15:31.943Z,55.88
2023-05-10T08:16:33.851Z,55.07
2023-05-10T08:17:36.087Z,53.91
2023-05-10T08:18:38.632Z,53.78
2023-05-10T08:19:40.593Z,53.15
2023-05-10T08:20:42.545Z,52.92
2023-05-10T08:21:45.544Z,52.14
2023-05-10T08:22:49.946Z,51.65
2023-05-10T08:23:53.095Z,51.60
2023-05-10T08:24:54.933Z,52.14
2023-05-10T08:25:56.799Z,51.89
2023-05-10T08:26:58.628Z,52.25
2023-05-10T08:28:00.731Z,51.65
2023-05-10T08:29:03.060Z,51.27
2023-05-10T08:30:05.341Z,50.63
2023-05-10T08:31:07.375Z,50.92
2023-05-10T08:32:09.375Z,51.54
2023-05-10T08:33:11.760Z,50.15
2023-05-10T08:34:13.741Z,50.60
2023-05-10T08:35:17.072Z,51.00
2023-05-10T08:36:22.626Z,51.70
2023-05-10T08:37:25.154Z,52.13
2023-05-10T08:38:27.555Z,51.31
2023-05-10T08:39:30.660Z,51.42
2023-05-10T08:40:32.850Z,51.74
2023-05-10T08:41:36.786Z,52.85
2023-05-10T08:42:42.778Z,52.75
2023-05-10T08:43:47.262Z,53.11
2023-05-10T08:44:50.350Z,51.73
2023-05-10T08:45:55.208Z,51.95
2023-05-10T08:46:58.086Z,52.22
2023-05-10T08:48:02.894Z,50.70
2023-05-10T08:49:05.395Z,50.78
2023-05-10T08:50:08.065Z,50.99
2023-05-10T08:51:12.490Z,51.08
2023-05-10T08:52:17.365Z,51.67
2023-05-10T08:53:20.928Z,50.94
2023-05-10T08:54:23.986Z,50.84
2023-05-10T08:55:25.871Z,51.02
2023-05-10T08:56:27.788Z,51.09
2023-05-10T08:57:29.714Z,50.78
2023-05-10T08:58:32.132Z,50.96
2023-05-10T08:59:34.328Z,50.27
2023-05-10T09:00:38.208Z,51.01
2023-05-10T09:01:41.400Z,51.01
2023-05-10T09:02:44.186Z,50.65
2023-05-10T09:03:47.483Z,50.48
2023-05-10T09:04:50.252Z,49.32
2023-05-10T09:05:52.525Z,48.64
2023-05-10T09:06:55.474Z,49.45
2023-05-10T09:07:57.423Z,49.03
2023-05-10T09:08:59.691Z,49.09
2023-05-10T09:10:01.965Z,50.15
2023-05-10T09:11:04.036Z,49.73
2023-05-10T09:12:07.414Z,49.38
2023-05-10T09:13:11.421Z,48.52
2023-05-10T09:14:14.044Z,48.62
2023-05-10T09:15:17.211Z,47.67
2023-05-10T09:16:21.804Z,47.21
2023-05-10T09:17:26.841Z,47.12
2023-05-10T09:18:28.744Z,47.63
2023-05-10T09:19:30.700Z,47.01
2023-05-10T09:20:32.856Z,47.58
2023-05-10T09:21:39.216Z,47.98
2023-05-10T09:22:41.206Z,47.50
2023-05-10T09:23:48.685Z,46.97
2023-05-10T09:25:05.035Z,46.45
2023-05-10T09:26:08.126Z,46.03
2023-05-10T09:27:10.727Z,45.82
2023-05-10T09:28:12.997Z,45.73
2023-05-10T09:29:17.329Z,46.75
2023-05-10T09:30:27.450Z,46.74
2023-05-10T09:31:45.761Z,47.06
2023-05-10T09:32:49.207Z,47.81
2023-05-10T09:33:51.886Z,46.14
2023-05-10T09:34:53.858Z,46.89
2023-05-10T09:35:55.822Z,47.22
2023-05-10T09:37:02.042Z,48.00
2023-05-10T09:38:05.442Z,48.52
2023-05-10T09:39:07.304Z,48.44
2023-05-10T09:40:13.615Z,48.83
2023-05-10T09:41:21.094Z,48.23
2023-05-10T09:42:24.020Z,48.20
2023-05-10T09:43:25.983Z,48.75
2023-05-10T09:44:28.269Z,48.35
2023-05-10T09:45:31.926Z,48.51
2023-05-10T09:46:37.205Z,47.23
2023-05-10T09:47:39.594Z,47.31
2023-05-10T09:48:48.950Z,47.41
2023-05-10T09:49:52.200Z,45.61
2023-05-10T09:50:59.962Z,46.71
2023-05-10T09:52:06.652Z,46.01
2023-05-10T09:53:08.802Z,46.41
2023-05-10T09:54:11.747Z,47.25
2023-05-10T09:55:13.903Z,47.67
2023-05-10T09:56:35.205Z,47.54
2023-05-10T09:57:37.137Z,46.58
2023-05-10T09:58:39.359Z,46.36
2023-05-10T09:59:44.080Z,46.25
2023-05-10T10:00:49.002Z,46.72
2023-05-10T10:01:52.373Z,47.54
2023-05-10T10:02:59.195Z,47.26
2023-05-10T10:04:04.845Z,47.21
2023-05-10T10:05:08.340Z,46.76
2023-05-10T10:06:18.896Z,47.04
2023-05-10T10:07:26.583Z,47.65
2023-05-10T10:08:28.952Z,46.35
2023-05-10T10:09:31.555Z,45.25
2023-05-10T10:10:34.652Z,45.37
2023-05-10T10:11:38.945Z,45.40
2023-05-10T10:12:42.197Z,45.57
2023-05-10T10:13:44.452Z,45.96
2023-05-10T10:14:48.291Z,43.09
2023-05-10T10:15:52.212Z,42.75
2023-05-10T10:17:06.758Z,42.20
2023-05-10T10:18:14.188Z,42.61
2023-05-10T10:19:16.406Z,44.09
2023-05-10T10:20:20.126Z,43.76
2023-05-10T10:21:23.323Z,44.37
2023-05-10T10:22:25.247Z,44.95
2023-05-10T10:23:28.422Z,45.12
2023-05-10T10:24:30.375Z,45.13
2023-05-10T10:25:32.702Z,40.56
2023-05-10T10:26:37.276Z,41.52
2023-05-10T10:27:44.425Z,41.12
2023-05-10T10:29:06.575Z,40.87
2023-05-10T10:30:23.493Z,42.20
2023-05-10T10:31:43.060Z,43.64
2023-05-10T10:32:47.679Z,44.52
2023-05-10T10:34:00.967Z,44.78
2023-05-10T10:35:03.146Z,43.51
2023-05-10T10:36:05.728Z,43.25
2023-05-10T10:37:09.239Z,42.93
2023-05-10T10:38:13.928Z,42.91
2023-05-10T10:39:17.020Z,42.12
2023-05-10T10:40:27.991Z,42.89
2023-05-10T10:41:38.163Z,42.65
2023-05-10T10:42:47.313Z,42.14
2023-05-10T10:43:49.160Z,42.80
2023-05-10T10:45:12.966Z,42.61
2023-05-10T10:46:17.883Z,42.12
2023-05-10T10:47:24.157Z,41.66
2023-05-10T10:48:26.207Z,41.77
2023-05-10T10:49:28.378Z,41.97
2023-05-10T10:50:30.543Z,40.80
2023-05-10T10:51:32.505Z,41.89
2023-05-10T10:52:44.287Z,41.43
2023-05-10T10:53:49.288Z,41.13
2023-05-10T10:54:52.711Z,40.29
2023-05-10T10:56:07.947Z,40.24
2023-05-10T10:57:14.594Z,39.98
2023-05-10T10:58:33.179Z,39.98
2023-05-10T10:59:35.009Z,40.75
2023-05-10T11:00:38.860Z,40.82
2023-05-10T11:01:45.488Z,40.47
2023-05-10T11:03:15.903Z,40.57
2023-05-10T11:04:19.358Z,39.94
2023-05-10T11:05:38.483Z,39.44
2023-05-10T11:06:41.222Z,39.05
2023-05-10T11:07:54.996Z,39.24
2023-05-10T11:08:56.955Z,39.09
2023-05-10T11:10:05.909Z,38.72
2023-05-10T11:11:08.453Z,39.35
2023-05-10T11:12:10.522Z,40.02
2023-05-10T11:13:12.651Z,40.86
2023-05-10T11:14:14.578Z,40.39
2023-05-10T11:15:16.734Z,40.94
2023-05-10T11:16:24.429Z,42.39
2023-05-10T11:17:30.128Z,41.36
2023-05-10T11:18:32.445Z,41.63
2023-05-10T11:19:34.497Z,41.94
2023-05-10T11:20:42.342Z,42.06
2023-05-10T11:21:51.292Z,41.67
2023-05-10T11:22:54.184Z,42.22
2023-05-10T11:23:58.463Z,42.85
2023-05-10T11:25:00.691Z,42.78
2023-05-10T11:26:02.961Z,42.72
2023-05-10T11:27:04.962Z,42.45
2023-05-10T11:28:07.773Z,40.38
2023-05-10T11:29:10.364Z,41.58
2023-05-10T11:30:12.938Z,40.52
2023-05-10T11:31:16.330Z,40.92
2023-05-10T11:32:18.508Z,41.01
2023-05-10T11:33:21.091Z,41.57
2023-05-10T11:34:36.589Z,41.96
2023-05-10T11:35:43.581Z,41.88
2023-05-10T11:36:54.806Z,42.36
2023-05-10T11:37:56.826Z,43.30
2023-05-10T11:38:58.702Z,42.43
2023-05-10T11:40:01.101Z,43.01
2023-05-10T11:41:02.930Z,41.83
2023-05-10T11:42:07.588Z,41.34
2023-05-10T11:43:11.459Z,41.16
2023-05-10T11:44:13.397Z,40.71
2023-05-10T11:45:15.629Z,39.58
2023-05-10T11:46:21.394Z,37.88
2023-05-10T11:47:23.346Z,38.42
2023-05-10T11:48:25.310Z,37.21
2023-05-10T11:49:27.513Z,37.29
2023-05-10T11:50:30.076Z,37.33
2023-05-10T11:51:36.708Z,37.34
2023-05-10T11:52:38.808Z,36.38
2023-05-10T11:53:40.708Z,36.47
2023-05-10T11:54:51.845Z,37.36
2023-05-10T11:55:54.124Z,38.43
2023-05-10T11:56:56.059Z,40.11
2023-05-10T11:58:03.628Z,39.90
2023-05-10T11:59:05.536Z,39.63
2023-05-10T12:00:08.125Z,39.76
2023-05-10T12:01:11.296Z,39.72
2023-05-10T12:02:16.390Z,39.97
2023-05-10T12:03:18.417Z,40.63
2023-05-10T12:04:21.076Z,41.49
2023-05-10T12:05:23.481Z,41.45
2023-05-10T12:06:27.930Z,40.94
2023-05-10T12:07:30.452Z,41.12
2023-05-10T12:08:32.252Z,41.25
2023-05-10T12:09:43.315Z,40.07
2023-05-10T12:10:46.172Z,40.07
2023-05-10T12:11:50.432Z,40.04
2023-05-10T12:12:53.528Z,39.93
2023-05-10T12:14:01.135Z,39.79
2023-05-10T12:15:04.300Z,39.24
2023-05-10T12:16:22.524Z,39.64
2023-05-10T12:17:28.771Z,39.74
2023-05-10T12:18:31.021Z,40.05
2023-05-10T12:19:39.722Z,40.22
2023-05-10T12:20:43.475Z,39.90
2023-05-10T12:21:45.439Z,40.60
2023-05-10T12:23:00.302Z,40.47
2023-05-10T12:24:04.831Z,41.05
2023-05-10T12:25:09.112Z,40.01
2023-05-10T12:26:11.417Z,39.74
2023-05-10T12:27:13.735Z,40.06
2023-05-10T12:28:15.564Z,40.05
2023-05-10T12:29:19.972Z,40.47
2023-05-10T12:30:23.063Z,40.92
2023-05-10T12:31:24.930Z,41.08
2023-05-10T12:32:40.924Z,40.99
2023-05-10T12:33:44.556Z,40.35
2023-05-10T12:34:48.516Z,41.32
2023-05-10T12:35:52.966Z,41.72
2023-05-10T12:36:55.679Z,42.41
2023-05-10T12:37:57.582Z,41.50
2023-05-10T12:39:05.922Z,42.13
2023-05-10T12:40:10.122Z,42.50
2023-05-10T12:41:14.068Z,42.24
2023-05-10T12:42:16.075Z,43.09
2023-05-10T12:43:17.916Z,42.27
2023-05-10T12:44:20.106Z,42.07
2023-05-10T12:45:23.088Z,42.42
2023-05-10T12:46:26.344Z,42.14
2023-05-10T12:47:28.338Z,43.03
2023-05-10T12:48:32.085Z,42.88
2023-05-10T12:49:35.026Z,41.93
2023-05-10T12:50:37.310Z,41.49
2023-05-10T12:51:40.690Z,41.94
2023-05-10T12:52:43.022Z,41.90
2023-05-10T12:53:48.740Z,40.15
2023-05-10T12:54:51.818Z,39.94
2023-05-10T12:55:55.417Z,39.19
2023-05-10T12:56:57.427Z,39.54
2023-05-10T12:57:59.230Z,39.96
2023-05-10T12:59:01.125Z,40.25
2023-05-10T13:00:03.463Z,40.56
2023-05-10T13:01:06.562Z,39.06
2023-05-10T13:02:08.518Z,39.36
2023-05-10T13:03:11.001Z,39.91
2023-05-10T13:04:12.860Z,39.71
2023-05-10T13:05:14.803Z,39.12
2023-05-10T13:06:17.065Z,37.64
2023-05-10T13:07:19.039Z,38.28
2023-05-10T13:08:20.921Z,38.96
2023-05-10T13:09:22.808Z,39.31
2023-05-10T13:10:24.910Z,39.93
2023-05-10T13:11:27.267Z,40.26
2023-05-10T13:12:29.089Z,40.37
2023-05-10T13:13:30.927Z,39.77
2023-05-10T13:14:32.745Z,39.77
2023-05-10T13:15:34.802Z,40.19
2023-05-10T13:16:37.062Z,39.65
2023-05-10T13:17:39.964Z,39.53
2023-05-10T13:18:41.899Z,40.02
2023-05-10T13:19:43.715Z,39.75
2023-05-10T13:20:45.795Z,39.09
2023-05-10T13:21:48.130Z,37.92
2023-05-10T13:22:50.628Z,38.01
2023-05-10T13:23:54.370Z,38.21
2023-05-10T13:24:56.205Z,37.70
2023-05-10T13:25:58.384Z,37.93
2023-05-10T13:27:00.909Z,38.58
2023-05-10T13:28:03.461Z,38.79
2023-05-10T13:29:05.377Z,38.05
2023-05-10T13:30:08.927Z,39.15
2023-05-10T13:31:11.359Z,38.54
2023-05-10T13:32:13.584Z,38.57
2023-05-10T13:33:15.493Z,38.48
2023-05-10T13:34:17.821Z,38.83
2023-05-10T13:35:19.615Z,37.98
2023-05-10T13:36:21.528Z,38.54
2023-05-10T13:37:23.798Z,38.77
2023-05-10T13:38:25.790Z,38.94
2023-05-10T13:39:27.722Z,38.30
2023-05-10T13:40:29.684Z,37.92
2023-05-10T13:41:31.532Z,38.57
2023-05-10T13:42:34.520Z,38.63
2023-05-10T13:43:37.119Z,38.10
2023-05-10T13:44:39.807Z,38.13
2023-05-10T13:45:41.863Z,38.48
2023-05-10T13:46:44.443Z,38.49